sensor_id;sensor_type;location;lat;lon;timestamp;P1;durP1;ratioP1;P2;durP2;ratioP2
43327;SDS011;28923;45.412;10.852;2024-01-30T00:00:35;8.68;;;7.60;;
43327;SDS011;28923;45.412;10.852;2024-01-30T00:03:00;8.43;;;7.25;;
43327;SDS011;28923;45.412;10.852;2024-01-30T00:05:26;8.85;;;7.90;;
43327;SDS011;28923;45.412;10.852;2024-01-30T00:07:51;8.38;;;7.43;;
43327;SDS011;28923;45.412;10.852;2024-01-30T00:10:17;8.75;;;7.65;;
43327;SDS011;28923;45.412;10.852;2024-01-30T00:12:42;8.43;;;7.38;;
43327;SDS011;28923;45.412;10.852;2024-01-30T00:15:08;7.93;;;7.05;;
43327;SDS011;28923;45.412;10.852;2024-01-30T00:17:35;8.82;;;7.38;;
43327;SDS011;28923;45.412;10.852;2024-01-30T00:20:01;8.65;;;7.45;;
43327;SDS011;28923;45.412;10.852;2024-01-30T00:22:26;9.27;;;8.07;;
43327;SDS011;28923;45.412;10.852;2024-01-30T00:24:52;9.35;;;7.75;;
43327;SDS011;28923;45.412;10.852;2024-01-30T00:27:17;9.95;;;7.65;;
43327;SDS011;28923;45.412;10.852;2024-01-30T00:29:42;9.73;;;7.32;;
43327;SDS011;28923;45.412;10.852;2024-01-30T00:32:08;8.32;;;7.28;;
43327;SDS011;28923;45.412;10.852;2024-01-30T00:34:33;8.77;;;7.65;;
43327;SDS011;28923;45.412;10.852;2024-01-30T00:36:59;8.93;;;7.50;;
43327;SDS011;28923;45.412;10.852;2024-01-30T00:39:24;9.23;;;7.60;;
43327;SDS011;28923;45.412;10.852;2024-01-30T00:41:50;9.00;;;7.68;;
43327;SDS011;28923;45.412;10.852;2024-01-30T00:44:15;8.60;;;7.40;;
43327;SDS011;28923;45.412;10.852;2024-01-30T00:46:41;10.13;;;7.80;;
43327;SDS011;28923;45.412;10.852;2024-01-30T00:49:07;7.95;;;7.15;;
43327;SDS011;28923;45.412;10.852;2024-01-30T00:51:32;8.40;;;7.47;;
43327;SDS011;28923;45.412;10.852;2024-01-30T00:53:58;8.85;;;7.35;;
43327;SDS011;28923;45.412;10.852;2024-01-30T00:56:23;8.73;;;7.15;;
43327;SDS011;28923;45.412;10.852;2024-01-30T00:58:49;8.57;;;7.68;;
43327;SDS011;28923;45.412;10.852;2024-01-30T01:01:15;9.48;;;7.40;;
43327;SDS011;28923;45.412;10.852;2024-01-30T01:03:41;7.72;;;6.72;;
43327;SDS011;28923;45.412;10.852;2024-01-30T01:06:08;7.53;;;6.60;;
43327;SDS011;28923;45.412;10.852;2024-01-30T01:08:34;8.48;;;6.95;;
43327;SDS011;28923;45.412;10.852;2024-01-30T01:10:59;8.57;;;7.03;;
43327;SDS011;28923;45.412;10.852;2024-01-30T01:13:24;7.45;;;6.68;;
43327;SDS011;28923;45.412;10.852;2024-01-30T01:15:50;8.25;;;6.88;;
43327;SDS011;28923;45.412;10.852;2024-01-30T01:18:15;7.70;;;6.57;;
43327;SDS011;28923;45.412;10.852;2024-01-30T01:20:41;7.53;;;6.50;;
43327;SDS011;28923;45.412;10.852;2024-01-30T01:23:06;7.80;;;6.97;;
43327;SDS011;28923;45.412;10.852;2024-01-30T01:25:31;8.45;;;6.50;;
43327;SDS011;28923;45.412;10.852;2024-01-30T01:27:57;7.90;;;6.60;;
43327;SDS011;28923;45.412;10.852;2024-01-30T01:30:22;7.28;;;6.57;;
43327;SDS011;28923;45.412;10.852;2024-01-30T01:32:49;7.40;;;6.60;;
43327;SDS011;28923;45.412;10.852;2024-01-30T01:35:26;7.10;;;6.40;;
43327;SDS011;28923;45.412;10.852;2024-01-30T01:37:54;6.90;;;6.20;;
43327;SDS011;28923;45.412;10.852;2024-01-30T01:40:21;6.93;;;6.22;;
43327;SDS011;28923;45.412;10.852;2024-01-30T01:42:46;7.03;;;5.88;;
43327;SDS011;28923;45.412;10.852;2024-01-30T01:45:11;6.90;;;6.22;;
43327;SDS011;28923;45.412;10.852;2024-01-30T01:47:37;6.88;;;6.10;;
43327;SDS011;28923;45.412;10.852;2024-01-30T01:50:03;5.88;;;5.30;;
43327;SDS011;28923;45.412;10.852;2024-01-30T01:52:28;7.07;;;6.38;;
43327;SDS011;28923;45.412;10.852;2024-01-30T01:54:54;6.53;;;5.90;;
43327;SDS011;28923;45.412;10.852;2024-01-30T01:57:19;6.25;;;5.47;;
43327;SDS011;28923;45.412;10.852;2024-01-30T01:59:45;6.78;;;6.07;;
43327;SDS011;28923;45.412;10.852;2024-01-30T02:02:10;6.07;;;5.50;;
43327;SDS011;28923;45.412;10.852;2024-01-30T02:04:36;6.45;;;5.72;;
43327;SDS011;28923;45.412;10.852;2024-01-30T02:07:01;6.40;;;5.80;;
43327;SDS011;28923;45.412;10.852;2024-01-30T02:09:27;6.22;;;5.43;;
43327;SDS011;28923;45.412;10.852;2024-01-30T02:11:52;6.03;;;5.40;;
43327;SDS011;28923;45.412;10.852;2024-01-30T02:14:18;5.63;;;5.03;;
43327;SDS011;28923;45.412;10.852;2024-01-30T02:16:44;5.90;;;5.30;;
43327;SDS011;28923;45.412;10.852;2024-01-30T02:19:09;6.13;;;5.47;;
43327;SDS011;28923;45.412;10.852;2024-01-30T02:21:35;5.55;;;5.05;;
43327;SDS011;28923;45.412;10.852;2024-01-30T02:24:01;5.95;;;5.35;;
43327;SDS011;28923;45.412;10.852;2024-01-30T02:26:26;5.72;;;5.22;;
43327;SDS011;28923;45.412;10.852;2024-01-30T02:28:52;5.93;;;5.32;;
43327;SDS011;28923;45.412;10.852;2024-01-30T02:31:17;6.15;;;4.95;;
43327;SDS011;28923;45.412;10.852;2024-01-30T02:33:43;5.80;;;5.30;;
43327;SDS011;28923;45.412;10.852;2024-01-30T02:36:08;5.85;;;5.20;;
43327;SDS011;28923;45.412;10.852;2024-01-30T02:38:34;5.90;;;5.40;;
43327;SDS011;28923;45.412;10.852;2024-01-30T02:40:59;5.88;;;5.10;;
43327;SDS011;28923;45.412;10.852;2024-01-30T02:43:25;5.47;;;4.97;;
43327;SDS011;28923;45.412;10.852;2024-01-30T02:45:50;5.38;;;4.88;;
43327;SDS011;28923;45.412;10.852;2024-01-30T02:48:16;4.78;;;4.38;;
43327;SDS011;28923;45.412;10.852;2024-01-30T02:50:41;4.72;;;4.32;;
43327;SDS011;28923;45.412;10.852;2024-01-30T02:53:06;5.30;;;4.80;;
43327;SDS011;28923;45.412;10.852;2024-01-30T02:55:32;5.30;;;4.80;;
43327;SDS011;28923;45.412;10.852;2024-01-30T02:57:58;5.07;;;4.68;;
43327;SDS011;28923;45.412;10.852;2024-01-30T03:00:23;5.40;;;4.82;;
43327;SDS011;28923;45.412;10.852;2024-01-30T03:02:48;5.00;;;4.55;;
43327;SDS011;28923;45.412;10.852;2024-01-30T03:05:14;5.03;;;4.53;;
43327;SDS011;28923;45.412;10.852;2024-01-30T03:07:39;4.80;;;4.32;;
43327;SDS011;28923;45.412;10.852;2024-01-30T03:10:05;4.80;;;4.32;;
43327;SDS011;28923;45.412;10.852;2024-01-30T03:12:31;5.20;;;4.70;;
43327;SDS011;28923;45.412;10.852;2024-01-30T03:14:56;4.80;;;4.40;;
43327;SDS011;28923;45.412;10.852;2024-01-30T03:17:22;4.88;;;4.38;;
43327;SDS011;28923;45.412;10.852;2024-01-30T03:19:47;4.90;;;4.40;;
43327;SDS011;28923;45.412;10.852;2024-01-30T03:22:13;5.20;;;4.70;;
43327;SDS011;28923;45.412;10.852;2024-01-30T03:24:38;4.68;;;4.28;;
43327;SDS011;28923;45.412;10.852;2024-01-30T03:27:03;4.70;;;4.20;;
43327;SDS011;28923;45.412;10.852;2024-01-30T03:29:29;4.72;;;4.25;;
43327;SDS011;28923;45.412;10.852;2024-01-30T03:31:54;4.78;;;4.35;;
43327;SDS011;28923;45.412;10.852;2024-01-30T03:34:20;4.53;;;4.13;;
43327;SDS011;28923;45.412;10.852;2024-01-30T03:36:45;4.50;;;4.10;;
43327;SDS011;28923;45.412;10.852;2024-01-30T03:39:11;4.75;;;4.35;;
43327;SDS011;28923;45.412;10.852;2024-01-30T03:41:36;5.07;;;4.55;;
43327;SDS011;28923;45.412;10.852;2024-01-30T03:44:02;4.55;;;4.10;;
43327;SDS011;28923;45.412;10.852;2024-01-30T03:46:27;5.03;;;4.22;;
43327;SDS011;28923;45.412;10.852;2024-01-30T03:48:53;4.25;;;3.85;;
43327;SDS011;28923;45.412;10.852;2024-01-30T03:51:18;4.45;;;4.05;;
43327;SDS011;28923;45.412;10.852;2024-01-30T03:53:44;4.30;;;3.92;;
43327;SDS011;28923;45.412;10.852;2024-01-30T03:56:11;4.32;;;3.92;;
43327;SDS011;28923;45.412;10.852;2024-01-30T03:58:38;4.53;;;4.13;;
43327;SDS011;28923;45.412;10.852;2024-01-30T04:01:03;4.30;;;3.90;;
43327;SDS011;28923;45.412;10.852;2024-01-30T04:03:29;4.40;;;4.00;;
43327;SDS011;28923;45.412;10.852;2024-01-30T04:05:54;4.95;;;4.15;;
43327;SDS011;28923;45.412;10.852;2024-01-30T04:08:19;4.22;;;3.83;;
43327;SDS011;28923;45.412;10.852;2024-01-30T04:10:46;4.30;;;3.80;;
43327;SDS011;28923;45.412;10.852;2024-01-30T04:13:11;4.95;;;4.03;;
43327;SDS011;28923;45.412;10.852;2024-01-30T04:15:37;4.07;;;3.67;;
43327;SDS011;28923;45.412;10.852;2024-01-30T04:18:03;4.53;;;4.13;;
43327;SDS011;28923;45.412;10.852;2024-01-30T04:20:28;4.35;;;3.95;;
43327;SDS011;28923;45.412;10.852;2024-01-30T04:22:54;4.68;;;4.25;;
43327;SDS011;28923;45.412;10.852;2024-01-30T04:25:19;4.35;;;3.95;;
43327;SDS011;28923;45.412;10.852;2024-01-30T04:27:45;4.47;;;4.07;;
43327;SDS011;28923;45.412;10.852;2024-01-30T04:30:10;4.22;;;3.83;;
43327;SDS011;28923;45.412;10.852;2024-01-30T04:32:36;4.45;;;4.05;;
43327;SDS011;28923;45.412;10.852;2024-01-30T04:35:02;4.05;;;3.70;;
43327;SDS011;28923;45.412;10.852;2024-01-30T04:37:28;3.75;;;3.45;;
43327;SDS011;28923;45.412;10.852;2024-01-30T04:39:53;4.45;;;4.05;;
43327;SDS011;28923;45.412;10.852;2024-01-30T04:42:18;4.10;;;3.70;;
43327;SDS011;28923;45.412;10.852;2024-01-30T04:44:44;5.63;;;3.70;;
43327;SDS011;28923;45.412;10.852;2024-01-30T04:47:10;3.85;;;3.45;;
43327;SDS011;28923;45.412;10.852;2024-01-30T04:49:40;4.32;;;3.92;;
43327;SDS011;28923;45.412;10.852;2024-01-30T04:52:06;4.57;;;4.13;;
43327;SDS011;28923;45.412;10.852;2024-01-30T04:54:31;3.50;;;3.20;;
43327;SDS011;28923;45.412;10.852;2024-01-30T04:56:56;4.53;;;3.78;;
43327;SDS011;28923;45.412;10.852;2024-01-30T04:59:22;4.20;;;3.35;;
43327;SDS011;28923;45.412;10.852;2024-01-30T05:26:06;10.40;;;7.63;;
43327;SDS011;28923;45.412;10.852;2024-01-30T05:28:32;10.55;;;7.68;;
43327;SDS011;28923;45.412;10.852;2024-01-30T05:30:57;10.90;;;8.35;;
43327;SDS011;28923;45.412;10.852;2024-01-30T05:33:23;11.15;;;8.50;;
43327;SDS011;28923;45.412;10.852;2024-01-30T05:35:48;10.55;;;7.70;;
43327;SDS011;28923;45.412;10.852;2024-01-30T05:38:15;9.73;;;7.55;;
43327;SDS011;28923;45.412;10.852;2024-01-30T05:40:42;12.02;;;8.02;;
43327;SDS011;28923;45.412;10.852;2024-01-30T05:43:07;10.43;;;7.88;;
43327;SDS011;28923;45.412;10.852;2024-01-30T05:45:33;8.70;;;7.20;;
43327;SDS011;28923;45.412;10.852;2024-01-30T05:48:01;9.10;;;7.18;;
43327;SDS011;28923;45.412;10.852;2024-01-30T05:50:27;10.57;;;7.60;;
43327;SDS011;28923;45.412;10.852;2024-01-30T05:52:53;8.70;;;7.43;;
43327;SDS011;28923;45.412;10.852;2024-01-30T05:55:18;9.15;;;6.97;;
43327;SDS011;28923;45.412;10.852;2024-01-30T05:57:43;7.97;;;6.72;;
43327;SDS011;28923;45.412;10.852;2024-01-30T06:00:09;7.65;;;6.38;;
43327;SDS011;28923;45.412;10.852;2024-01-30T06:02:35;7.28;;;6.10;;
43327;SDS011;28923;45.412;10.852;2024-01-30T06:05:01;8.95;;;6.55;;
43327;SDS011;28923;45.412;10.852;2024-01-30T06:07:26;7.70;;;6.38;;
43327;SDS011;28923;45.412;10.852;2024-01-30T06:09:51;7.78;;;6.18;;
43327;SDS011;28923;45.412;10.852;2024-01-30T06:12:17;7.57;;;6.35;;
43327;SDS011;28923;45.412;10.852;2024-01-30T06:14:42;13.23;;;6.30;;
43327;SDS011;28923;45.412;10.852;2024-01-30T06:17:08;7.72;;;6.20;;
43327;SDS011;28923;45.412;10.852;2024-01-30T06:19:34;10.93;;;6.18;;
43327;SDS011;28923;45.412;10.852;2024-01-30T06:21:59;9.43;;;5.90;;
43327;SDS011;28923;45.412;10.852;2024-01-30T06:24:24;8.40;;;5.95;;
43327;SDS011;28923;45.412;10.852;2024-01-30T06:26:51;13.30;;;6.30;;
43327;SDS011;28923;45.412;10.852;2024-01-30T06:29:16;8.75;;;5.57;;
43327;SDS011;28923;45.412;10.852;2024-01-30T06:31:42;9.32;;;6.13;;
43327;SDS011;28923;45.412;10.852;2024-01-30T06:34:10;10.93;;;6.03;;
43327;SDS011;28923;45.412;10.852;2024-01-30T06:36:37;13.45;;;5.55;;
43327;SDS011;28923;45.412;10.852;2024-01-30T06:39:03;8.15;;;6.00;;
43327;SDS011;28923;45.412;10.852;2024-01-30T06:41:28;9.52;;;5.60;;
43327;SDS011;28923;45.412;10.852;2024-01-30T06:43:55;8.75;;;6.00;;
43327;SDS011;28923;45.412;10.852;2024-01-30T06:46:20;6.95;;;5.20;;
43327;SDS011;28923;45.412;10.852;2024-01-30T06:48:46;10.05;;;5.32;;
43327;SDS011;28923;45.412;10.852;2024-01-30T06:51:14;7.45;;;6.05;;
43327;SDS011;28923;45.412;10.852;2024-01-30T06:53:39;6.55;;;5.28;;
43327;SDS011;28923;45.412;10.852;2024-01-30T06:56:05;7.28;;;5.32;;
43327;SDS011;28923;45.412;10.852;2024-01-30T06:58:30;8.05;;;5.50;;
43327;SDS011;28923;45.412;10.852;2024-01-30T07:00:57;7.15;;;5.07;;
43327;SDS011;28923;45.412;10.852;2024-01-30T07:03:22;12.15;;;5.70;;
43327;SDS011;28923;45.412;10.852;2024-01-30T07:05:48;8.45;;;5.05;;
43327;SDS011;28923;45.412;10.852;2024-01-30T07:08:14;15.50;;;5.70;;
43327;SDS011;28923;45.412;10.852;2024-01-30T07:10:42;11.93;;;5.25;;
43327;SDS011;28923;45.412;10.852;2024-01-30T07:13:08;11.43;;;5.13;;
43327;SDS011;28923;45.412;10.852;2024-01-30T07:15:35;9.45;;;4.72;;
43327;SDS011;28923;45.412;10.852;2024-01-30T07:18:01;9.68;;;5.10;;
43327;SDS011;28923;45.412;10.852;2024-01-30T07:20:27;8.57;;;4.30;;
43327;SDS011;28923;45.412;10.852;2024-01-30T07:22:52;6.55;;;4.32;;
43327;SDS011;28923;45.412;10.852;2024-01-30T07:25:18;7.28;;;4.60;;
43327;SDS011;28923;45.412;10.852;2024-01-30T07:27:43;7.78;;;4.57;;
43327;SDS011;28923;45.412;10.852;2024-01-30T07:30:09;11.75;;;4.60;;
43327;SDS011;28923;45.412;10.852;2024-01-30T07:32:34;7.22;;;4.75;;
43327;SDS011;28923;45.412;10.852;2024-01-30T07:34:59;5.75;;;4.15;;
43327;SDS011;28923;45.412;10.852;2024-01-30T07:37:25;12.15;;;4.38;;
43327;SDS011;28923;45.412;10.852;2024-01-30T07:39:50;8.30;;;4.32;;
43327;SDS011;28923;45.412;10.852;2024-01-30T07:42:15;5.43;;;3.97;;
43327;SDS011;28923;45.412;10.852;2024-01-30T07:44:42;7.50;;;4.68;;
43327;SDS011;28923;45.412;10.852;2024-01-30T07:47:08;7.03;;;4.10;;
43327;SDS011;28923;45.412;10.852;2024-01-30T07:49:34;6.57;;;4.68;;
43327;SDS011;28923;45.412;10.852;2024-01-30T07:52:00;6.50;;;4.20;;
43327;SDS011;28923;45.412;10.852;2024-01-30T07:54:25;5.72;;;4.32;;
43327;SDS011;28923;45.412;10.852;2024-01-30T07:56:51;5.65;;;4.20;;
43327;SDS011;28923;45.412;10.852;2024-01-30T07:59:16;4.63;;;3.83;;
43327;SDS011;28923;45.412;10.852;2024-01-30T08:01:42;7.07;;;4.35;;
43327;SDS011;28923;45.412;10.852;2024-01-30T08:04:07;7.40;;;4.10;;
43327;SDS011;28923;45.412;10.852;2024-01-30T08:06:33;4.82;;;3.88;;
43327;SDS011;28923;45.412;10.852;2024-01-30T08:08:58;7.78;;;3.78;;
43327;SDS011;28923;45.412;10.852;2024-01-30T08:11:24;4.40;;;3.40;;
43327;SDS011;28923;45.412;10.852;2024-01-30T08:13:54;7.60;;;3.55;;
43327;SDS011;28923;45.412;10.852;2024-01-30T08:16:20;7.80;;;3.67;;
43327;SDS011;28923;45.412;10.852;2024-01-30T08:18:45;4.38;;;3.75;;
43327;SDS011;28923;45.412;10.852;2024-01-30T08:21:11;6.22;;;3.65;;
43327;SDS011;28923;45.412;10.852;2024-01-30T08:23:38;7.40;;;4.40;;
43327;SDS011;28923;45.412;10.852;2024-01-30T08:26:04;10.85;;;3.63;;
43327;SDS011;28923;45.412;10.852;2024-01-30T08:28:29;4.25;;;3.47;;
43327;SDS011;28923;45.412;10.852;2024-01-30T08:30:54;4.40;;;3.50;;
43327;SDS011;28923;45.412;10.852;2024-01-30T08:33:20;4.25;;;3.30;;
43327;SDS011;28923;45.412;10.852;2024-01-30T08:35:46;7.18;;;3.83;;
43327;SDS011;28923;45.412;10.852;2024-01-30T08:38:11;4.60;;;3.03;;
43327;SDS011;28923;45.412;10.852;2024-01-30T08:40:37;6.10;;;3.80;;
43327;SDS011;28923;45.412;10.852;2024-01-30T08:43:03;5.38;;;3.40;;
43327;SDS011;28923;45.412;10.852;2024-01-30T08:45:29;7.05;;;3.50;;
43327;SDS011;28923;45.412;10.852;2024-01-30T08:47:56;4.05;;;3.63;;
43327;SDS011;28923;45.412;10.852;2024-01-30T08:50:22;6.38;;;3.53;;
43327;SDS011;28923;45.412;10.852;2024-01-30T08:52:52;5.75;;;3.45;;
43327;SDS011;28923;45.412;10.852;2024-01-30T08:55:17;4.43;;;3.38;;
43327;SDS011;28923;45.412;10.852;2024-01-30T08:57:43;3.90;;;3.30;;
43327;SDS011;28923;45.412;10.852;2024-01-30T09:00:08;4.65;;;3.10;;
43327;SDS011;28923;45.412;10.852;2024-01-30T09:02:35;5.18;;;3.72;;
43327;SDS011;28923;45.412;10.852;2024-01-30T09:05:01;6.38;;;3.20;;
43327;SDS011;28923;45.412;10.852;2024-01-30T09:07:29;4.22;;;3.45;;
43327;SDS011;28923;45.412;10.852;2024-01-30T09:09:54;3.60;;;3.30;;
43327;SDS011;28923;45.412;10.852;2024-01-30T09:12:19;3.83;;;3.42;;
43327;SDS011;28923;45.412;10.852;2024-01-30T09:14:45;3.60;;;3.30;;
43327;SDS011;28923;45.412;10.852;2024-01-30T09:17:11;3.53;;;3.22;;
43327;SDS011;28923;45.412;10.852;2024-01-30T09:19:37;4.78;;;3.45;;
43327;SDS011;28923;45.412;10.852;2024-01-30T09:22:03;4.72;;;3.22;;
43327;SDS011;28923;45.412;10.852;2024-01-30T09:24:28;4.00;;;3.05;;
43327;SDS011;28923;45.412;10.852;2024-01-30T09:26:54;4.70;;;3.40;;
43327;SDS011;28923;45.412;10.852;2024-01-30T09:29:20;4.65;;;3.17;;
43327;SDS011;28923;45.412;10.852;2024-01-30T09:31:46;4.50;;;3.75;;
43327;SDS011;28923;45.412;10.852;2024-01-30T09:34:12;4.00;;;3.58;;
43327;SDS011;28923;45.412;10.852;2024-01-30T09:36:37;4.05;;;3.40;;
43327;SDS011;28923;45.412;10.852;2024-01-30T09:39:03;3.70;;;3.35;;
43327;SDS011;28923;45.412;10.852;2024-01-30T09:41:29;3.20;;;2.90;;
43327;SDS011;28923;45.412;10.852;2024-01-30T09:43:57;3.10;;;2.90;;
43327;SDS011;28923;45.412;10.852;2024-01-30T09:46:23;3.47;;;3.17;;
43327;SDS011;28923;45.412;10.852;2024-01-30T09:48:52;4.00;;;3.38;;
43327;SDS011;28923;45.412;10.852;2024-01-30T09:51:19;3.20;;;2.90;;
43327;SDS011;28923;45.412;10.852;2024-01-30T09:53:45;3.28;;;2.97;;
43327;SDS011;28923;45.412;10.852;2024-01-30T09:56:12;3.60;;;3.30;;
43327;SDS011;28923;45.412;10.852;2024-01-30T09:58:38;3.58;;;3.28;;
43327;SDS011;28923;45.412;10.852;2024-01-30T10:01:05;3.40;;;3.10;;
43327;SDS011;28923;45.412;10.852;2024-01-30T10:03:30;3.65;;;3.35;;
43327;SDS011;28923;45.412;10.852;2024-01-30T10:05:56;3.67;;;3.20;;
43327;SDS011;28923;45.412;10.852;2024-01-30T10:08:22;3.83;;;3.42;;
43327;SDS011;28923;45.412;10.852;2024-01-30T10:10:47;3.65;;;3.35;;
43327;SDS011;28923;45.412;10.852;2024-01-30T10:13:13;4.10;;;3.70;;
43327;SDS011;28923;45.412;10.852;2024-01-30T10:15:39;3.92;;;3.40;;
43327;SDS011;28923;45.412;10.852;2024-01-30T10:18:05;3.90;;;3.50;;
43327;SDS011;28923;45.412;10.852;2024-01-30T10:20:32;4.00;;;3.53;;
43327;SDS011;28923;45.412;10.852;2024-01-30T10:22:57;3.92;;;3.63;;
43327;SDS011;28923;45.412;10.852;2024-01-30T10:25:23;4.40;;;3.22;;
43327;SDS011;28923;45.412;10.852;2024-01-30T10:27:52;3.85;;;3.55;;
43327;SDS011;28923;45.412;10.852;2024-01-30T10:30:18;4.95;;;3.88;;
43327;SDS011;28923;45.412;10.852;2024-01-30T10:32:44;3.70;;;3.38;;
43327;SDS011;28923;45.412;10.852;2024-01-30T10:35:09;4.20;;;3.58;;
43327;SDS011;28923;45.412;10.852;2024-01-30T10:37:35;4.85;;;4.38;;
43327;SDS011;28923;45.412;10.852;2024-01-30T10:40:04;7.68;;;3.88;;
43327;SDS011;28923;45.412;10.852;2024-01-30T10:42:31;4.30;;;3.90;;
43327;SDS011;28923;45.412;10.852;2024-01-30T10:45:10;4.43;;;4.03;;
43327;SDS011;28923;45.412;10.852;2024-01-30T10:47:43;4.20;;;3.80;;
43327;SDS011;28923;45.412;10.852;2024-01-30T10:50:10;4.40;;;3.92;;
43327;SDS011;28923;45.412;10.852;2024-01-30T10:52:36;4.30;;;3.90;;
43327;SDS011;28923;45.412;10.852;2024-01-30T10:55:02;4.25;;;3.80;;
43327;SDS011;28923;45.412;10.852;2024-01-30T10:57:30;4.43;;;4.00;;
43327;SDS011;28923;45.412;10.852;2024-01-30T10:59:56;4.65;;;4.15;;
43327;SDS011;28923;45.412;10.852;2024-01-30T11:02:23;4.45;;;4.05;;
43327;SDS011;28923;45.412;10.852;2024-01-30T11:04:49;4.82;;;4.32;;
43327;SDS011;28923;45.412;10.852;2024-01-30T11:07:15;4.43;;;3.90;;
43327;SDS011;28923;45.412;10.852;2024-01-30T11:09:48;4.65;;;4.20;;
43327;SDS011;28923;45.412;10.852;2024-01-30T11:12:13;5.57;;;4.53;;
43327;SDS011;28923;45.412;10.852;2024-01-30T11:14:39;4.35;;;3.95;;
43327;SDS011;28923;45.412;10.852;2024-01-30T11:17:09;5.90;;;4.28;;
43327;SDS011;28923;45.412;10.852;2024-01-30T11:19:35;5.35;;;4.40;;
43327;SDS011;28923;45.412;10.852;2024-01-30T11:22:00;5.80;;;4.60;;
43327;SDS011;28923;45.412;10.852;2024-01-30T11:24:27;5.32;;;4.82;;
43327;SDS011;28923;45.412;10.852;2024-01-30T11:26:56;4.82;;;4.07;;
43327;SDS011;28923;45.412;10.852;2024-01-30T11:29:29;4.50;;;4.10;;
43327;SDS011;28923;45.412;10.852;2024-01-30T11:31:55;5.32;;;4.82;;
43327;SDS011;28923;45.412;10.852;2024-01-30T11:34:21;5.03;;;4.40;;
43327;SDS011;28923;45.412;10.852;2024-01-30T11:36:57;4.93;;;4.43;;
43327;SDS011;28923;45.412;10.852;2024-01-30T11:39:24;4.95;;;4.50;;
43327;SDS011;28923;45.412;10.852;2024-01-30T11:41:50;5.30;;;4.80;;
43327;SDS011;28923;45.412;10.852;2024-01-30T11:44:16;5.18;;;4.68;;
43327;SDS011;28923;45.412;10.852;2024-01-30T11:46:42;5.22;;;4.72;;
43327;SDS011;28923;45.412;10.852;2024-01-30T11:49:07;5.22;;;4.72;;
43327;SDS011;28923;45.412;10.852;2024-01-30T11:51:33;5.65;;;4.75;;
43327;SDS011;28923;45.412;10.852;2024-01-30T11:53:58;5.00;;;4.50;;
43327;SDS011;28923;45.412;10.852;2024-01-30T11:56:24;5.30;;;4.68;;
43327;SDS011;28923;45.412;10.852;2024-01-30T11:58:50;4.78;;;4.38;;
43327;SDS011;28923;45.412;10.852;2024-01-30T12:01:17;5.68;;;4.60;;
43327;SDS011;28923;45.412;10.852;2024-01-30T12:03:48;5.25;;;4.75;;
43327;SDS011;28923;45.412;10.852;2024-01-30T12:06:15;5.25;;;4.75;;
43327;SDS011;28923;45.412;10.852;2024-01-30T12:08:40;4.90;;;4.47;;
43327;SDS011;28923;45.412;10.852;2024-01-30T12:11:06;5.13;;;4.63;;
43327;SDS011;28923;45.412;10.852;2024-01-30T12:13:31;5.45;;;4.82;;
43327;SDS011;28923;45.412;10.852;2024-01-30T12:15:57;5.60;;;4.78;;
43327;SDS011;28923;45.412;10.852;2024-01-30T12:18:22;5.70;;;5.13;;
43327;SDS011;28923;45.412;10.852;2024-01-30T12:21:00;5.63;;;5.10;;
43327;SDS011;28923;45.412;10.852;2024-01-30T12:23:27;5.57;;;4.82;;
43327;SDS011;28923;45.412;10.852;2024-01-30T12:25:52;5.55;;;5.05;;
43327;SDS011;28923;45.412;10.852;2024-01-30T12:28:19;6.43;;;5.65;;
43327;SDS011;28923;45.412;10.852;2024-01-30T12:30:44;5.53;;;4.65;;
43327;SDS011;28923;45.412;10.852;2024-01-30T12:33:15;5.57;;;5.07;;
43327;SDS011;28923;45.412;10.852;2024-01-30T12:35:40;7.20;;;5.45;;
43327;SDS011;28923;45.412;10.852;2024-01-30T12:38:10;7.30;;;5.40;;
43327;SDS011;28923;45.412;10.852;2024-01-30T12:40:35;8.35;;;5.20;;
43327;SDS011;28923;45.412;10.852;2024-01-30T12:43:01;7.90;;;5.75;;
43327;SDS011;28923;45.412;10.852;2024-01-30T12:45:26;8.60;;;5.47;;
43327;SDS011;28923;45.412;10.852;2024-01-30T12:47:52;8.18;;;5.80;;
43327;SDS011;28923;45.412;10.852;2024-01-30T12:50:18;8.68;;;5.50;;
43327;SDS011;28923;45.412;10.852;2024-01-30T12:52:44;6.72;;;5.20;;
43327;SDS011;28923;45.412;10.852;2024-01-30T12:55:09;7.32;;;5.13;;
43327;SDS011;28923;45.412;10.852;2024-01-30T12:57:35;8.35;;;5.50;;
43327;SDS011;28923;45.412;10.852;2024-01-30T13:00:00;7.05;;;5.28;;
43327;SDS011;28923;45.412;10.852;2024-01-30T13:02:26;6.63;;;5.25;;
43327;SDS011;28923;45.412;10.852;2024-01-30T13:04:55;10.52;;;5.72;;
43327;SDS011;28923;45.412;10.852;2024-01-30T13:07:20;14.70;;;5.75;;
43327;SDS011;28923;45.412;10.852;2024-01-30T13:09:46;10.27;;;5.65;;
43327;SDS011;28923;45.412;10.852;2024-01-30T13:12:12;9.93;;;6.05;;
43327;SDS011;28923;45.412;10.852;2024-01-30T13:14:38;8.70;;;5.30;;
43327;SDS011;28923;45.412;10.852;2024-01-30T13:17:04;8.63;;;5.95;;
43327;SDS011;28923;45.412;10.852;2024-01-30T13:19:30;7.60;;;5.40;;
43327;SDS011;28923;45.412;10.852;2024-01-30T13:21:55;7.40;;;5.75;;
43327;SDS011;28923;45.412;10.852;2024-01-30T13:24:21;8.77;;;5.55;;
43327;SDS011;28923;45.412;10.852;2024-01-30T13:26:46;8.77;;;5.88;;
43327;SDS011;28923;45.412;10.852;2024-01-30T13:29:12;9.25;;;6.10;;
43327;SDS011;28923;45.412;10.852;2024-01-30T13:31:37;7.20;;;5.82;;
43327;SDS011;28923;45.412;10.852;2024-01-30T13:34:04;7.45;;;6.05;;
43327;SDS011;28923;45.412;10.852;2024-01-30T13:36:31;8.00;;;5.97;;
43327;SDS011;28923;45.412;10.852;2024-01-30T13:38:57;7.45;;;6.05;;
43327;SDS011;28923;45.412;10.852;2024-01-30T13:41:23;6.70;;;5.97;;
43327;SDS011;28923;45.412;10.852;2024-01-30T13:43:48;9.07;;;6.30;;
43327;SDS011;28923;45.412;10.852;2024-01-30T13:46:14;8.65;;;5.90;;
43327;SDS011;28923;45.412;10.852;2024-01-30T13:48:39;8.15;;;6.55;;
43327;SDS011;28923;45.412;10.852;2024-01-30T13:51:05;7.50;;;6.18;;
43327;SDS011;28923;45.412;10.852;2024-01-30T13:53:31;7.32;;;5.88;;
43327;SDS011;28923;45.412;10.852;2024-01-30T13:55:56;7.05;;;6.22;;
43327;SDS011;28923;45.412;10.852;2024-01-30T13:58:21;6.22;;;5.63;;
43327;SDS011;28923;45.412;10.852;2024-01-30T14:00:47;8.38;;;5.68;;
43327;SDS011;28923;45.412;10.852;2024-01-30T14:03:13;6.50;;;5.03;;
43327;SDS011;28923;45.412;10.852;2024-01-30T14:05:38;6.40;;;5.38;;
43327;SDS011;28923;45.412;10.852;2024-01-30T14:08:05;7.40;;;6.13;;
43327;SDS011;28923;45.412;10.852;2024-01-30T14:10:31;8.15;;;5.80;;
43327;SDS011;28923;45.412;10.852;2024-01-30T14:12:56;6.22;;;5.63;;
43327;SDS011;28923;45.412;10.852;2024-01-30T14:15:22;7.13;;;5.90;;
43327;SDS011;28923;45.412;10.852;2024-01-30T14:17:47;6.07;;;5.10;;
43327;SDS011;28923;45.412;10.852;2024-01-30T14:20:14;7.40;;;6.18;;
43327;SDS011;28923;45.412;10.852;2024-01-30T14:22:43;6.90;;;5.97;;
43327;SDS011;28923;45.412;10.852;2024-01-30T14:25:08;6.30;;;5.68;;
43327;SDS011;28923;45.412;10.852;2024-01-30T14:27:34;7.32;;;6.05;;
43327;SDS011;28923;45.412;10.852;2024-01-30T14:30:00;7.20;;;6.22;;
43327;SDS011;28923;45.412;10.852;2024-01-30T14:32:25;6.13;;;5.47;;
43327;SDS011;28923;45.412;10.852;2024-01-30T14:34:51;6.68;;;5.82;;
43327;SDS011;28923;45.412;10.852;2024-01-30T14:37:17;6.68;;;5.80;;
43327;SDS011;28923;45.412;10.852;2024-01-30T14:39:43;6.75;;;6.00;;
43327;SDS011;28923;45.412;10.852;2024-01-30T14:42:08;7.60;;;5.85;;
43327;SDS011;28923;45.412;10.852;2024-01-30T14:44:34;6.18;;;5.57;;
43327;SDS011;28923;45.412;10.852;2024-01-30T14:46:59;8.05;;;5.88;;
43327;SDS011;28923;45.412;10.852;2024-01-30T14:49:25;6.65;;;5.70;;